Cuprum, Idaho
Current Conditions -  °F | °C
As of 9:51 PM on Friday 24 Oct 2014 (Local Time) from KMYL Reporting Station
Clear Clear  
Wind Chill: 40°   Ceiling: Unl
Heat Index: 40°   Visibility: 10mi
Dew Point: 39°   Wind: 0mph
Humidity: 97%   Direction: NA
Pressure: 30.01"   Gusts: NA
Location:  44.9328°N, 116.572°W
Report Text: KMYL 250351Z AUTO 00000KT 10SM CLR 04/04 A3001 RMK AO2 SLP166 T00440039
Loading
Personal Weather Stations






























Interactive Weather Map
Tropical Storm Tracking
New forecast layout! Learn more

10-Day Weather Forecast

Advertisements
Track Severe Weather on mobile